createdAt,value
2023-04-02T00:00:29.653Z,82.76
2023-04-02T00:02:25.865Z,82.19
2023-04-02T00:04:23.492Z,83.00
2023-04-02T00:05:56.200Z,82.73
2023-04-02T00:07:31.196Z,82.96
2023-04-02T00:09:05.880Z,82.66
2023-04-02T00:10:38.063Z,82.28
2023-04-02T00:12:22.412Z,82.38
2023-04-02T00:13:53.976Z,82.29
2023-04-02T00:15:25.810Z,82.91
2023-04-02T00:16:57.970Z,82.96
2023-04-02T00:18:29.678Z,83.20
2023-04-02T00:20:06.382Z,82.54
2023-04-02T00:21:38.861Z,83.17
2023-04-02T00:23:11.768Z,82.30
2023-04-02T00:24:43.491Z,82.63
2023-04-02T00:26:23.071Z,82.24
2023-04-02T00:27:54.902Z,82.22
2023-04-02T00:29:26.529Z,81.79
2023-04-02T00:30:59.553Z,82.36
2023-04-02T00:32:31.781Z,82.26
2023-04-02T00:34:04.790Z,82.41
2023-04-02T00:35:37.882Z,82.26
2023-04-02T00:37:11.309Z,82.67
2023-04-02T00:38:43.931Z,81.85
2023-04-02T00:40:19.972Z,82.61
2023-04-02T00:42:05.074Z,81.76
2023-04-02T00:43:38.254Z,81.84
2023-04-02T00:45:14.171Z,81.69
2023-04-02T00:46:49.760Z,81.74
2023-04-02T00:48:36.890Z,82.01
2023-04-02T00:50:22.012Z,81.77
2023-04-02T00:51:56.881Z,82.36
2023-04-02T00:53:29.549Z,82.36
2023-04-02T00:55:03.922Z,82.42
2023-04-02T00:56:37.706Z,82.15
2023-04-02T00:58:13.856Z,82.60
2023-04-02T00:59:51.312Z,82.62
2023-04-02T01:01:24.251Z,83.47
2023-04-02T01:03:29.123Z,83.74
2023-04-02T01:05:02.288Z,85.17
2023-04-02T01:06:35.665Z,84.73
2023-04-02T01:08:11.168Z,84.69
2023-04-02T01:09:50.353Z,85.22
2023-04-02T01:11:32.236Z,84.03
2023-04-02T01:13:08.753Z,84.31
2023-04-02T01:14:45.812Z,85.11
2023-04-02T01:16:19.826Z,83.90
2023-04-02T01:18:03.335Z,85.07
2023-04-02T01:20:11.812Z,84.68
2023-04-02T01:21:52.957Z,85.67
2023-04-02T01:23:27.813Z,86.10
2023-04-02T01:24:59.455Z,85.40
2023-04-02T01:26:52.558Z,85.77
2023-04-02T01:28:27.236Z,85.75
2023-04-02T01:30:00.743Z,85.22
2023-04-02T01:31:33.306Z,85.00
2023-04-02T01:33:05.638Z,85.51
2023-04-02T01:34:37.902Z,85.63
2023-04-02T01:36:11.802Z,84.91
2023-04-02T01:37:46.692Z,85.14
2023-04-02T01:39:24.525Z,85.28
2023-04-02T01:40:58.818Z,85.05
2023-04-02T01:42:33.299Z,85.43
2023-04-02T01:44:06.456Z,85.91
2023-04-02T01:45:39.418Z,86.05
2023-04-02T01:47:11.681Z,85.72
2023-04-02T01:48:43.262Z,86.25
2023-04-02T01:50:22.753Z,85.95
2023-04-02T01:51:56.680Z,85.75
2023-04-02T01:53:28.592Z,85.84
2023-04-02T01:55:00.202Z,85.97
2023-04-02T01:56:31.794Z,85.80
2023-04-02T01:58:03.930Z,85.43
2023-04-02T01:59:35.808Z,85.06
2023-04-02T02:01:12.217Z,85.44
2023-04-02T02:02:44.009Z,84.97
2023-04-02T02:04:16.013Z,85.22
2023-04-02T02:05:47.609Z,84.97
2023-04-02T02:07:20.501Z,85.14
2023-04-02T02:08:53.482Z,85.07
2023-04-02T02:10:27.518Z,85.07
2023-04-02T02:11:59.248Z,84.58
2023-04-02T02:13:31.906Z,84.81
2023-04-02T02:15:03.974Z,85.65
2023-04-02T02:16:41.978Z,85.14
2023-04-02T02:18:13.759Z,85.40
2023-04-02T02:19:46.351Z,85.59
2023-04-02T02:21:23.518Z,85.31
2023-04-02T02:22:55.356Z,85.63
2023-04-02T02:24:28.860Z,85.35
2023-04-02T02:26:00.449Z,84.68
2023-04-02T02:27:47.241Z,85.56
2023-04-02T02:29:18.880Z,84.99
2023-04-02T02:30:51.498Z,85.96
2023-04-02T02:32:27.673Z,85.67
2023-04-02T02:34:00.964Z,86.38
2023-04-02T02:35:35.266Z,86.18
2023-04-02T02:37:07.567Z,87.14
2023-04-02T02:38:49.432Z,86.55
2023-04-02T02:40:23.881Z,85.76
2023-04-02T02:41:56.568Z,86.15
2023-04-02T02:43:28.225Z,85.72
2023-04-02T02:45:00.436Z,85.67
2023-04-02T02:46:32.040Z,85.78
2023-04-02T02:48:05.402Z,85.58
2023-04-02T02:49:39.452Z,86.51
2023-04-02T02:51:17.735Z,86.40
2023-04-02T02:52:51.495Z,85.85
2023-04-02T02:54:23.087Z,86.42
2023-04-02T02:55:55.958Z,86.32
2023-04-02T02:57:28.932Z,85.34
2023-04-02T02:59:00.673Z,85.29
2023-04-02T03:00:33.692Z,85.83
2023-04-02T03:02:06.912Z,85.93
2023-04-02T03:03:40.591Z,86.39
2023-04-02T03:05:16.561Z,85.96
2023-04-02T03:06:49.165Z,85.13
2023-04-02T03:08:23.020Z,85.62
2023-04-02T03:09:57.546Z,85.89
2023-04-02T03:11:32.472Z,85.59
2023-04-02T03:13:06.964Z,85.61
2023-04-02T03:14:40.287Z,85.54
2023-04-02T03:16:12.960Z,85.40
2023-04-02T03:17:46.420Z,86.34
2023-04-02T03:19:24.751Z,85.33
2023-04-02T03:20:57.555Z,86.01
2023-04-02T03:22:32.019Z,85.90
2023-04-02T03:24:05.713Z,85.63
2023-04-02T03:25:39.808Z,85.88
2023-04-02T03:27:13.242Z,86.50
2023-04-02T03:28:47.429Z,85.73
2023-04-02T03:30:29.580Z,85.22
2023-04-02T03:32:03.696Z,85.54
2023-04-02T03:33:36.211Z,85.61
2023-04-02T03:35:14.821Z,85.50
2023-04-02T03:36:49.083Z,84.90
2023-04-02T03:38:21.963Z,85.56
2023-04-02T03:39:55.649Z,85.29
2023-04-02T03:41:31.294Z,85.82
2023-04-02T03:43:04.241Z,85.46
2023-04-02T03:44:37.999Z,85.23
2023-04-02T03:46:16.607Z,85.10
2023-04-02T03:47:51.188Z,84.93
2023-04-02T03:49:26.632Z,85.31
2023-04-02T03:51:00.958Z,85.16
2023-04-02T03:52:34.133Z,85.33
2023-04-02T03:54:05.860Z,85.53
2023-04-02T03:55:38.082Z,85.79
2023-04-02T03:57:12.024Z,85.68
2023-04-02T03:58:46.956Z,85.36
2023-04-02T04:00:20.746Z,85.78
2023-04-02T04:01:54.240Z,86.04
2023-04-02T04:03:28.861Z,86.26
2023-04-02T04:05:00.636Z,86.17
2023-04-02T04:06:33.646Z,85.96
2023-04-02T04:08:06.589Z,85.46
2023-04-02T04:09:38.264Z,85.98
2023-04-02T04:11:10.822Z,85.95
2023-04-02T04:12:43.875Z,85.82
2023-04-02T04:14:17.234Z,84.56
2023-04-02T04:15:51.578Z,85.55
2023-04-02T04:17:30.144Z,85.32
2023-04-02T04:19:03.940Z,85.23
2023-04-02T04:20:36.613Z,85.35
2023-04-02T04:22:10.662Z,85.15
2023-04-02T04:23:50.642Z,84.94
2023-04-02T04:25:25.429Z,85.07
2023-04-02T04:26:58.381Z,83.86
2023-04-02T04:28:32.842Z,84.62
2023-04-02T04:30:06.311Z,84.48
2023-04-02T04:31:39.377Z,84.42
2023-04-02T04:33:15.348Z,84.95
2023-04-02T04:34:51.596Z,85.46
2023-04-02T04:36:28.586Z,85.07
2023-04-02T04:38:04.066Z,84.29
2023-04-02T04:39:42.622Z,84.60
2023-04-02T04:41:15.977Z,84.43
2023-04-02T04:42:48.237Z,84.64
2023-04-02T04:44:21.962Z,84.66
2023-04-02T04:45:55.782Z,85.38
2023-04-02T04:47:30.982Z,83.93
2023-04-02T04:49:04.989Z,84.54
2023-04-02T04:50:38.490Z,84.56
2023-04-02T04:52:13.968Z,84.41
2023-04-02T04:53:47.927Z,83.87
2023-04-02T04:55:28.436Z,84.16
2023-04-02T04:57:01.341Z,84.87
2023-04-02T04:58:35.254Z,85.07
2023-04-02T05:00:12.902Z,84.20
2023-04-02T05:01:46.649Z,84.90
2023-04-02T05:03:22.474Z,84.71
2023-04-02T05:04:54.174Z,85.26
2023-04-02T05:06:32.931Z,84.36
2023-04-02T05:08:05.784Z,83.80
2023-04-02T05:09:40.385Z,84.91
2023-04-02T05:11:13.810Z,85.06
2023-04-02T05:12:46.838Z,84.57
2023-04-02T05:14:23.883Z,84.58
2023-04-02T05:16:01.196Z,85.01
2023-04-02T05:17:34.167Z,84.36
2023-04-02T05:19:07.407Z,84.83
2023-04-02T05:20:41.370Z,84.84
2023-04-02T05:22:17.550Z,84.85
2023-04-02T05:23:50.876Z,85.36
2023-04-02T05:25:34.221Z,85.90
2023-04-02T05:27:12.733Z,84.72
2023-04-02T05:28:47.047Z,85.00
2023-04-02T05:30:36.068Z,85.56
2023-04-02T05:32:09.251Z,85.30
2023-04-02T05:33:41.084Z,84.69
2023-04-02T05:35:16.912Z,85.79
2023-04-02T05:36:48.801Z,84.85
2023-04-02T05:38:21.650Z,84.63
2023-04-02T05:39:54.461Z,84.33
2023-04-02T05:41:28.435Z,84.46
2023-04-02T05:43:00.357Z,84.50
2023-04-02T05:44:32.644Z,83.90
2023-04-02T05:46:08.082Z,83.56
2023-04-02T05:47:41.195Z,82.63
2023-04-02T05:49:16.816Z,82.99
2023-04-02T05:50:49.611Z,82.92
2023-04-02T05:52:23.530Z,82.94
2023-04-02T05:53:55.958Z,82.83
2023-04-02T05:55:32.582Z,83.42
2023-04-02T05:57:07.854Z,83.35
2023-04-02T05:58:44.033Z,82.81
2023-04-02T06:00:20.410Z,83.07
2023-04-02T06:01:53.551Z,83.37
2023-04-02T06:03:27.667Z,83.09
2023-04-02T06:05:01.205Z,82.95
2023-04-02T06:06:49.671Z,82.56
2023-04-02T06:08:22.748Z,82.40
2023-04-02T06:09:56.051Z,82.28
2023-04-02T06:11:29.225Z,82.56
2023-04-02T06:13:03.750Z,82.48
2023-04-02T06:14:35.585Z,82.57
2023-04-02T06:16:07.474Z,82.19
2023-04-02T06:17:43.685Z,82.20
2023-04-02T06:19:17.250Z,82.46
2023-04-02T06:20:48.942Z,82.36
2023-04-02T06:22:24.342Z,81.97
2023-04-02T06:23:56.976Z,82.23
2023-04-02T06:25:30.147Z,82.32
2023-04-02T06:27:03.004Z,82.57
2023-04-02T06:28:40.148Z,82.10
2023-04-02T06:30:16.192Z,82.05
2023-04-02T06:31:49.648Z,82.29
2023-04-02T06:33:21.463Z,81.03
2023-04-02T06:34:53.304Z,81.18
2023-04-02T06:36:25.113Z,81.64
2023-04-02T06:37:57.609Z,81.09
2023-04-02T06:39:29.255Z,80.50
2023-04-02T06:41:05.022Z,80.62
2023-04-02T06:42:37.281Z,80.62
2023-04-02T06:44:13.434Z,81.14
2023-04-02T06:45:45.677Z,81.45
2023-04-02T06:47:22.786Z,80.31
2023-04-02T06:48:57.001Z,80.75
2023-04-02T06:50:31.464Z,81.06
2023-04-02T06:52:04.495Z,80.44
2023-04-02T06:53:37.156Z,79.97
2023-04-02T06:55:24.643Z,80.11
2023-04-02T06:56:56.587Z,80.21
2023-04-02T06:58:28.300Z,80.44
2023-04-02T07:00:04.051Z,80.89
2023-04-02T07:01:37.004Z,79.02
2023-04-02T07:03:14.471Z,80.23
2023-04-02T07:04:46.167Z,79.98
2023-04-02T07:06:18.644Z,79.65
2023-04-02T07:07:50.267Z,79.77
2023-04-02T07:09:22.596Z,79.78
2023-04-02T07:10:58.439Z,80.22
2023-04-02T07:12:30.411Z,80.64
2023-04-02T07:14:02.238Z,79.58
2023-04-02T07:15:35.470Z,79.93
2023-04-02T07:17:07.437Z,79.07
2023-04-02T07:18:39.016Z,78.65
2023-04-02T07:20:20.582Z,78.54
2023-04-02T07:21:52.217Z,79.65
2023-04-02T07:23:23.997Z,78.52
2023-04-02T07:24:55.649Z,78.78
2023-04-02T07:26:27.949Z,79.05
2023-04-02T07:27:59.652Z,79.51
2023-04-02T07:29:31.260Z,78.04
2023-04-02T07:31:04.377Z,78.72
2023-04-02T07:32:36.663Z,78.84
2023-04-02T07:34:08.357Z,77.71
2023-04-02T07:35:40.380Z,77.85
2023-04-02T07:37:13.032Z,79.27
2023-04-02T07:38:44.698Z,78.00
2023-04-02T07:40:17.840Z,78.53
2023-04-02T07:41:53.242Z,78.33
2023-04-02T07:43:24.820Z,78.04
2023-04-02T07:44:56.462Z,77.17
2023-04-02T07:46:29.672Z,77.56
2023-04-02T07:48:04.744Z,77.67
2023-04-02T07:49:36.439Z,77.24
2023-04-02T07:51:15.042Z,77.32
2023-04-02T07:52:46.653Z,76.81
2023-04-02T07:54:18.219Z,76.43
2023-04-02T07:55:52.179Z,76.37
2023-04-02T07:57:23.907Z,77.37
2023-04-02T07:58:55.761Z,77.37
2023-04-02T08:00:29.117Z,77.02
2023-04-02T08:02:02.837Z,76.85
2023-04-02T08:03:34.617Z,75.97
2023-04-02T08:05:06.852Z,76.52
2023-04-02T08:06:38.440Z,76.79
2023-04-02T08:08:10.055Z,76.11
2023-04-02T08:09:41.652Z,75.65
2023-04-02T08:11:13.309Z,76.48
2023-04-02T08:12:47.086Z,77.08
2023-04-02T08:14:18.768Z,76.61
2023-04-02T08:15:50.523Z,76.71
2023-04-02T08:17:23.596Z,75.86
2023-04-02T08:18:56.418Z,76.03
2023-04-02T08:20:28.485Z,76.45
2023-04-02T08:22:10.129Z,75.54
2023-04-02T08:23:42.813Z,75.16
2023-04-02T08:25:14.585Z,75.56
2023-04-02T08:26:46.427Z,75.03
2023-04-02T08:28:18.093Z,75.07
2023-04-02T08:29:49.717Z,75.12
2023-04-02T08:31:21.676Z,74.70
2023-04-02T08:32:54.777Z,75.05
2023-04-02T08:34:26.460Z,74.79
2023-04-02T08:35:58.263Z,75.66
2023-04-02T08:37:29.941Z,75.06
2023-04-02T08:39:01.966Z,74.58
2023-04-02T08:40:36.170Z,74.00
2023-04-02T08:42:17.262Z,74.51
2023-04-02T08:44:04.123Z,74.31
2023-04-02T08:45:42.204Z,74.84
2023-04-02T08:47:13.989Z,74.78
2023-04-02T08:48:49.349Z,74.59
2023-04-02T08:50:25.628Z,73.90
2023-04-02T08:51:57.550Z,75.24
2023-04-02T08:53:31.196Z,73.32
2023-04-02T08:55:03.617Z,72.42
2023-04-02T08:56:37.414Z,73.61
2023-04-02T08:58:13.852Z,73.57
2023-04-02T08:59:45.635Z,73.48
2023-04-02T09:01:24.461Z,73.94
2023-04-02T09:02:56.813Z,73.36
2023-04-02T09:04:29.969Z,73.86
2023-04-02T09:06:01.680Z,73.49
2023-04-02T09:07:33.666Z,73.00
2023-04-02T09:09:05.622Z,73.44
2023-04-02T09:10:40.716Z,72.43
2023-04-02T09:12:16.642Z,72.43
2023-04-02T09:13:50.500Z,71.53
2023-04-02T09:15:25.722Z,71.33
2023-04-02T09:16:59.264Z,71.36
2023-04-02T09:18:31.168Z,70.48
2023-04-02T09:20:17.177Z,70.87
2023-04-02T09:21:57.077Z,70.47
2023-04-02T09:23:28.791Z,71.22
2023-04-02T09:25:02.150Z,71.24
2023-04-02T09:26:34.087Z,70.07
2023-04-02T09:28:06.012Z,68.48
2023-04-02T09:29:44.687Z,68.55
2023-04-02T09:31:19.986Z,69.24
2023-04-02T09:32:52.976Z,69.72
2023-04-02T09:34:28.994Z,69.54
2023-04-02T09:36:02.094Z,69.16
2023-04-02T09:37:33.961Z,68.36
2023-04-02T09:39:17.014Z,69.02
2023-04-02T09:40:50.096Z,68.20
2023-04-02T09:42:33.895Z,66.89
2023-04-02T09:44:13.189Z,66.30
2023-04-02T09:45:45.307Z,67.01
2023-04-02T09:47:24.295Z,66.43
2023-04-02T09:48:58.493Z,64.71
2023-04-02T09:50:33.665Z,65.51
2023-04-02T09:52:27.857Z,66.73
2023-04-02T09:54:12.305Z,65.32
2023-04-02T09:55:43.957Z,66.63
2023-04-02T09:57:23.851Z,66.84
2023-04-02T09:59:04.543Z,66.79
2023-04-02T10:00:36.528Z,67.40
2023-04-02T10:02:23.506Z,68.04
2023-04-02T10:03:55.974Z,68.24
2023-04-02T10:05:39.998Z,67.06
2023-04-02T10:07:34.927Z,68.85
2023-04-02T10:09:20.303Z,67.95
2023-04-02T10:10:53.308Z,67.66
2023-04-02T10:12:24.984Z,68.02
2023-04-02T10:14:00.689Z,68.14
2023-04-02T10:15:34.038Z,66.88
2023-04-02T10:17:08.263Z,66.86
2023-04-02T10:18:43.293Z,66.64
2023-04-02T10:20:17.910Z,66.59
2023-04-02T10:21:49.611Z,66.87
2023-04-02T10:23:24.778Z,64.28
2023-04-02T10:24:56.607Z,64.41
2023-04-02T10:26:46.882Z,63.16
2023-04-02T10:28:31.321Z,62.89
2023-04-02T10:30:11.419Z,62.66
2023-04-02T10:31:47.427Z,64.54
2023-04-02T10:33:21.500Z,62.56
2023-04-02T10:34:57.377Z,62.88
2023-04-02T10:36:36.265Z,63.25
2023-04-02T10:38:26.395Z,63.78
2023-04-02T10:39:58.551Z,62.46
2023-04-02T10:41:31.809Z,62.80
2023-04-02T10:43:28.427Z,62.11
2023-04-02T10:45:19.825Z,60.32
2023-04-02T10:46:58.190Z,61.11
2023-04-02T10:48:32.714Z,61.13
2023-04-02T10:50:24.521Z,61.22
2023-04-02T10:51:59.012Z,61.02
2023-04-02T10:53:33.491Z,61.59
2023-04-02T10:55:06.673Z,62.29
2023-04-02T10:56:50.004Z,61.23
2023-04-02T10:58:24.256Z,60.71
2023-04-02T10:59:57.695Z,60.75
2023-04-02T11:01:29.915Z,61.26
2023-04-02T11:03:04.820Z,58.62
2023-04-02T11:04:39.474Z,60.92
2023-04-02T11:06:14.179Z,60.42
2023-04-02T11:07:52.295Z,61.05
2023-04-02T11:09:26.677Z,60.82
2023-04-02T11:11:00.018Z,59.67
2023-04-02T11:12:41.556Z,60.05
2023-04-02T11:14:17.169Z,60.00
2023-04-02T11:15:48.914Z,61.54
2023-04-02T11:17:21.331Z,61.29
2023-04-02T11:19:10.519Z,61.21
2023-04-02T11:20:56.283Z,61.71
2023-04-02T11:22:28.005Z,61.60
2023-04-02T11:24:00.367Z,61.40
2023-04-02T11:25:33.533Z,59.86
2023-04-02T11:27:07.579Z,59.67
2023-04-02T11:28:39.278Z,61.04
2023-04-02T11:30:24.442Z,60.37
2023-04-02T11:32:14.792Z,61.45
2023-04-02T11:33:48.824Z,61.34
2023-04-02T11:35:27.756Z,60.70
2023-04-02T11:37:00.362Z,60.22
2023-04-02T11:38:52.336Z,62.26
2023-04-02T11:40:47.176Z,60.29
2023-04-02T11:42:24.790Z,60.34
2023-04-02T11:44:00.406Z,60.71
2023-04-02T11:46:02.392Z,60.45
2023-04-02T11:47:34.143Z,61.11
2023-04-02T11:49:36.014Z,61.80
2023-04-02T11:51:12.141Z,61.08
2023-04-02T11:52:51.825Z,59.65
2023-04-02T11:54:26.671Z,60.36
2023-04-02T11:56:19.106Z,60.64
2023-04-02T11:57:56.247Z,59.71
2023-04-02T11:59:29.139Z,59.27
2023-04-02T12:01:22.657Z,60.43
2023-04-02T12:03:03.405Z,58.33
2023-04-02T12:05:04.394Z,57.87
2023-04-02T12:06:48.191Z,57.59
2023-04-02T12:08:27.503Z,58.34
2023-04-02T12:09:59.416Z,55.87
2023-04-02T12:11:33.683Z,56.90
2023-04-02T12:13:05.348Z,57.01
2023-04-02T12:14:43.634Z,56.80
2023-04-02T12:16:15.520Z,57.82
2023-04-02T12:17:47.281Z,57.45
2023-04-02T12:19:19.105Z,54.85
2023-04-02T12:20:52.033Z,54.73
2023-04-02T12:22:24.726Z,55.87
2023-04-02T12:23:57.815Z,54.48
2023-04-02T12:25:31.500Z,56.83
2023-04-02T12:27:15.652Z,56.18
2023-04-02T12:28:47.773Z,54.92
2023-04-02T12:30:20.714Z,56.00
2023-04-02T12:31:52.617Z,54.86
2023-04-02T12:33:29.494Z,55.14
2023-04-02T12:35:04.914Z,53.82
2023-04-02T12:36:36.612Z,53.99
2023-04-02T12:38:19.194Z,53.86
2023-04-02T12:39:55.487Z,54.10
2023-04-02T12:41:30.225Z,54.87
2023-04-02T12:43:06.265Z,55.12
2023-04-02T12:44:38.034Z,53.33
2023-04-02T12:46:09.752Z,54.44
2023-04-02T12:47:44.319Z,54.34
2023-04-02T12:49:27.087Z,55.78
2023-04-02T12:50:58.833Z,57.29
2023-04-02T12:52:30.637Z,55.88
2023-04-02T12:54:02.445Z,55.96
2023-04-02T12:55:34.281Z,54.19
2023-04-02T12:57:33.676Z,54.82
2023-04-02T12:59:18.662Z,52.22
2023-04-02T13:00:50.878Z,52.95
2023-04-02T13:02:23.374Z,53.21
2023-04-02T13:04:04.513Z,53.02
2023-04-02T13:05:38.039Z,53.07
2023-04-02T13:07:14.600Z,51.37
2023-04-02T13:08:46.359Z,53.22
2023-04-02T13:10:23.245Z,51.07
2023-04-02T13:11:54.913Z,52.88
2023-04-02T13:13:30.170Z,47.55
2023-04-02T13:15:04.597Z,50.19
2023-04-02T13:16:36.670Z,48.66
2023-04-02T13:18:19.152Z,48.25
2023-04-02T13:19:51.052Z,51.45
2023-04-02T13:21:28.556Z,48.64
2023-04-02T13:23:01.495Z,50.46
2023-04-02T13:24:33.289Z,49.60
2023-04-02T13:26:26.290Z,50.62
2023-04-02T13:27:58.237Z,49.33
2023-04-02T13:29:30.188Z,52.06
2023-04-02T13:31:03.176Z,49.70
2023-04-02T13:32:34.871Z,49.66
2023-04-02T13:34:06.492Z,48.51
2023-04-02T13:35:38.146Z,49.90
2023-04-02T13:37:10.582Z,48.75
2023-04-02T13:38:42.190Z,49.04
2023-04-02T13:40:14.809Z,49.52
2023-04-02T13:41:47.964Z,47.43
2023-04-02T13:43:20.069Z,49.34
2023-04-02T13:44:54.491Z,47.68
2023-04-02T13:46:28.890Z,47.22
2023-04-02T13:48:03.623Z,48.60
2023-04-02T13:49:35.944Z,48.88
2023-04-02T13:51:09.366Z,49.04
2023-04-02T13:52:41.160Z,47.83
2023-04-02T13:54:17.222Z,48.98
2023-04-02T13:55:48.827Z,46.88
2023-04-02T13:57:20.785Z,47.76
2023-04-02T13:58:52.547Z,48.10
2023-04-02T14:00:30.194Z,47.56
2023-04-02T14:02:14.316Z,48.32
2023-04-02T14:03:46.130Z,46.80
2023-04-02T14:05:26.781Z,46.64
2023-04-02T14:07:24.629Z,46.84
2023-04-02T14:09:02.484Z,45.46
2023-04-02T14:10:51.233Z,46.70
2023-04-02T14:12:28.571Z,48.20
2023-04-02T14:14:30.213Z,46.77
2023-04-02T14:16:16.862Z,46.07
2023-04-02T14:17:58.026Z,46.50
2023-04-02T14:19:48.888Z,46.37
2023-04-02T14:21:25.442Z,46.35
2023-04-02T14:23:10.533Z,43.95
2023-04-02T14:24:45.099Z,43.83
2023-04-02T14:26:19.182Z,46.01
2023-04-02T14:27:55.160Z,43.99
2023-04-02T14:29:29.444Z,45.95
2023-04-02T14:31:03.437Z,44.98
2023-04-02T14:32:38.188Z,46.86
2023-04-02T14:34:15.917Z,46.41
2023-04-02T14:35:49.317Z,46.28
2023-04-02T14:37:22.958Z,47.29
2023-04-02T14:38:56.033Z,45.03
2023-04-02T14:40:29.801Z,48.54
2023-04-02T14:42:02.590Z,49.72
2023-04-02T14:43:38.065Z,49.88
2023-04-02T14:45:12.142Z,49.90
2023-04-02T14:46:47.141Z,51.07
2023-04-02T14:48:31.594Z,52.95
2023-04-02T14:50:10.899Z,52.30
2023-04-02T14:51:44.234Z,54.13
2023-04-02T14:53:18.372Z,53.94
2023-04-02T14:54:52.246Z,54.27
2023-04-02T14:56:24.166Z,54.59
2023-04-02T14:57:55.834Z,58.03
2023-04-02T14:59:29.622Z,64.40
2023-04-02T15:01:02.904Z,67.12
2023-04-02T15:02:43.273Z,69.04
2023-04-02T15:04:17.203Z,70.88
2023-04-02T15:05:52.127Z,70.85
2023-04-02T15:07:24.985Z,71.00
2023-04-02T15:09:09.259Z,71.80
2023-04-02T15:11:00.161Z,74.39
2023-04-02T15:12:36.143Z,75.31
2023-04-02T15:14:13.060Z,71.88
2023-04-02T15:15:47.906Z,74.01
2023-04-02T15:17:20.428Z,71.71
2023-04-02T15:18:52.340Z,73.28
2023-04-02T15:20:26.833Z,73.71
2023-04-02T15:22:25.067Z,72.45
2023-04-02T15:24:07.307Z,72.07
2023-04-02T15:25:45.542Z,71.45
2023-04-02T15:27:30.526Z,73.02
2023-04-02T15:29:04.213Z,73.42
2023-04-02T15:30:44.146Z,72.22
2023-04-02T15:32:27.360Z,72.83
2023-04-02T15:34:26.927Z,70.79
2023-04-02T15:36:04.218Z,72.22
2023-04-02T15:37:50.700Z,72.70
2023-04-02T15:39:29.479Z,73.70
2023-04-02T15:41:02.094Z,74.11
2023-04-02T15:42:50.709Z,73.28
2023-04-02T15:44:27.408Z,73.30
2023-04-02T15:46:09.912Z,74.08
2023-04-02T15:47:45.895Z,72.86
2023-04-02T15:49:32.774Z,72.94
2023-04-02T15:51:12.717Z,72.71
2023-04-02T15:52:50.769Z,72.78
2023-04-02T15:54:30.945Z,73.72
2023-04-02T15:56:08.367Z,71.28
2023-04-02T15:57:53.543Z,72.91
2023-04-02T15:59:39.334Z,70.65
2023-04-02T16:01:15.919Z,70.30
2023-04-02T16:03:28.763Z,70.37
2023-04-02T16:05:03.803Z,70.12
2023-04-02T16:06:38.024Z,70.63
2023-04-02T16:08:35.545Z,70.64
2023-04-02T16:10:09.671Z,71.26
2023-04-02T16:11:44.041Z,70.61
2023-04-02T16:13:19.384Z,68.86
2023-04-02T16:14:51.057Z,70.67
2023-04-02T16:16:25.092Z,67.23
2023-04-02T16:17:58.876Z,68.09
2023-04-02T16:19:34.334Z,68.23
2023-04-02T16:21:06.557Z,68.06
2023-04-02T16:22:53.377Z,68.16
2023-04-02T16:24:37.759Z,68.17
2023-04-02T16:26:21.923Z,68.73
2023-04-02T16:27:56.750Z,68.89
2023-04-02T16:29:51.419Z,69.73
2023-04-02T16:31:27.574Z,68.24
2023-04-02T16:33:07.852Z,68.24
2023-04-02T16:34:41.522Z,67.71
2023-04-02T16:36:21.523Z,67.33
2023-04-02T16:37:56.396Z,67.94
2023-04-02T16:39:39.743Z,66.89
2023-04-02T16:41:16.535Z,67.12
2023-04-02T16:42:49.723Z,67.50
2023-04-02T16:44:29.226Z,67.35
2023-04-02T16:46:05.784Z,68.16
2023-04-02T16:47:46.778Z,67.60
2023-04-02T16:49:23.516Z,69.74
2023-04-02T16:51:07.473Z,68.49
2023-04-02T16:52:41.789Z,70.13
2023-04-02T16:54:16.386Z,71.06
2023-04-02T16:55:56.461Z,69.42
2023-04-02T16:57:58.247Z,69.63
2023-04-02T16:59:34.893Z,70.70
2023-04-02T17:01:16.348Z,69.61
2023-04-02T17:02:54.828Z,69.81
2023-04-02T17:04:50.878Z,70.25
2023-04-02T17:06:29.920Z,69.20
2023-04-02T17:08:13.223Z,69.70
2023-04-02T17:09:48.160Z,70.36
2023-04-02T17:11:23.905Z,70.41
2023-04-02T17:13:00.752Z,70.23
2023-04-02T17:14:34.862Z,71.11
2023-04-02T17:16:12.530Z,69.83
2023-04-02T17:17:44.860Z,69.71
2023-04-02T17:19:16.901Z,69.99
2023-04-02T17:20:51.611Z,69.91
2023-04-02T17:22:26.210Z,69.72
2023-04-02T17:23:58.747Z,69.76
2023-04-02T17:25:31.758Z,70.13
2023-04-02T17:27:06.411Z,69.59
2023-04-02T17:28:38.129Z,69.85
2023-04-02T17:30:14.745Z,69.86
2023-04-02T17:31:48.453Z,70.01
2023-04-02T17:33:22.215Z,69.80
2023-04-02T17:34:53.981Z,69.62
2023-04-02T17:36:34.098Z,69.38
2023-04-02T17:38:08.959Z,70.16
2023-04-02T17:39:42.608Z,70.50
2023-04-02T17:41:17.066Z,69.74
2023-04-02T17:42:52.619Z,70.96
2023-04-02T17:44:30.349Z,71.63
2023-04-02T17:46:03.118Z,72.13
2023-04-02T17:47:43.765Z,72.38
2023-04-02T17:49:18.171Z,71.81
2023-04-02T17:51:02.468Z,71.94
2023-04-02T17:52:35.582Z,72.70
2023-04-02T17:54:19.218Z,72.24
2023-04-02T17:55:55.950Z,70.96
2023-04-02T17:57:41.250Z,72.32
2023-04-02T17:59:21.703Z,71.77
2023-04-02T18:01:00.114Z,72.13
2023-04-02T18:02:39.013Z,71.26
2023-04-02T18:04:18.923Z,72.30
2023-04-02T18:05:52.807Z,71.37
2023-04-02T18:07:38.439Z,71.75
2023-04-02T18:09:29.580Z,71.52
2023-04-02T18:13:43.919Z,71.89
2023-04-02T18:15:38.409Z,71.76
2023-04-02T18:17:47.240Z,71.91
2023-04-02T18:19:52.613Z,71.67
2023-04-02T18:22:05.399Z,71.53
2023-04-02T18:25:54.352Z,72.49
2023-04-02T18:28:05.228Z,72.43
2023-04-02T18:30:01.147Z,73.91
2023-04-02T18:31:43.616Z,75.23
2023-04-02T18:33:38.052Z,75.65
2023-04-02T18:35:47.875Z,75.51
2023-04-02T18:37:26.767Z,75.47
2023-04-02T18:41:27.122Z,74.27
2023-04-02T18:43:14.047Z,75.49
2023-04-02T18:44:54.606Z,76.42
2023-04-02T18:46:31.098Z,76.03
2023-04-02T18:48:20.101Z,77.46
2023-04-02T18:50:12.070Z,75.74
2023-04-02T18:51:55.693Z,77.00
2023-04-02T18:53:28.621Z,76.04
2023-04-02T18:55:05.764Z,76.03
2023-04-02T18:56:38.613Z,75.58
2023-04-02T18:58:12.292Z,76.08
2023-04-02T18:59:46.645Z,76.72
2023-04-02T19:01:21.357Z,76.27
2023-04-02T19:02:54.068Z,77.07
2023-04-02T19:04:28.802Z,77.54
2023-04-02T19:06:03.224Z,78.12
2023-04-02T19:07:38.030Z,77.04
2023-04-02T19:09:13.080Z,76.26
2023-04-02T19:12:40.701Z,77.67
2023-04-02T19:14:13.526Z,76.12
2023-04-02T19:16:03.494Z,76.52
2023-04-02T19:17:36.902Z,76.42
2023-04-02T19:19:11.943Z,76.77
2023-04-02T19:20:50.839Z,76.69
2023-04-02T19:22:35.121Z,76.80
2023-04-02T19:24:15.029Z,77.14
2023-04-02T19:25:57.208Z,76.82
2023-04-02T19:27:31.918Z,77.43
2023-04-02T19:29:11.425Z,77.76
2023-04-02T19:31:07.509Z,78.69
2023-04-02T19:32:43.256Z,78.42
2023-04-02T19:34:22.773Z,77.88
2023-04-02T19:35:59.460Z,78.19
2023-04-02T19:37:33.168Z,79.07
2023-04-02T19:39:13.692Z,78.73
2023-04-02T19:40:46.167Z,79.70
2023-04-02T19:42:22.987Z,79.91
2023-04-02T19:43:54.749Z,79.12
2023-04-02T19:45:34.453Z,79.37
2023-04-02T19:47:06.302Z,79.48
2023-04-02T19:48:43.001Z,79.88
2023-04-02T19:50:14.885Z,79.92
2023-04-02T19:51:47.890Z,79.27
2023-04-02T19:53:19.602Z,79.72
2023-04-02T19:54:53.842Z,80.81
2023-04-02T19:56:26.702Z,80.34
2023-04-02T19:58:12.578Z,80.71
2023-04-02T19:59:49.153Z,80.62
2023-04-02T20:01:21.014Z,81.28
2023-04-02T20:02:52.997Z,81.33
2023-04-02T20:04:24.713Z,80.61
2023-04-02T20:05:58.439Z,80.48
2023-04-02T20:07:32.027Z,80.38
2023-04-02T20:09:03.795Z,80.25
2023-04-02T20:10:35.613Z,80.13
2023-04-02T20:12:07.524Z,80.30
2023-04-02T20:13:39.139Z,80.11
2023-04-02T20:15:11.624Z,80.36
2023-04-02T20:16:52.189Z,79.16
2023-04-02T20:18:27.061Z,80.15
2023-04-02T20:19:58.685Z,80.10
2023-04-02T20:21:38.373Z,79.53
2023-04-02T20:23:11.733Z,80.26
2023-04-02T20:24:43.428Z,80.81
2023-04-02T20:26:15.026Z,80.45
2023-04-02T20:27:48.588Z,80.43
2023-04-02T20:29:20.262Z,80.46
2023-04-02T20:30:52.187Z,80.08
2023-04-02T20:32:24.399Z,79.53
2023-04-02T20:33:56.497Z,80.78
2023-04-02T20:35:29.612Z,79.93
2023-04-02T20:37:04.558Z,78.95
2023-04-02T20:38:37.672Z,79.23
2023-04-02T20:40:10.761Z,79.76
2023-04-02T20:41:42.550Z,79.23
2023-04-02T20:43:14.374Z,78.72
2023-04-02T20:44:46.238Z,79.48
2023-04-02T20:46:18.266Z,79.79
2023-04-02T20:47:49.979Z,80.40
2023-04-02T20:49:24.043Z,80.31
2023-04-02T20:50:58.106Z,81.63